PBD1825 UUWW-URMM
Flight info
| Callsign | PBD1825 |
|---|---|
| Flight time | 1h 49m |
| Altitude | 37000 |
| Route | EMGAS3D EMGAS T828 NIBIM M54 LARIN LARIN5A |
| Aircraft | B738/M-SDE2E3FGHIRWXY/LB1 |
Departure
| Time | 2026-04-29 13:42 |
|---|---|
| Airport | Vnukovo International Airport (UUWW) |
Arrival
| Time | 2026-04-29 15:31 |
|---|---|
| Airport | Mineralnye Vody Airport (URMM) |
| Time | Latitude | Longitude | Altitude | Speed | Heading |
|---|---|---|---|---|---|
| 2026-04-29 13:04 | 55.60238 | 37.27728 | 677 ft | 0 kts | 89° |
| 2026-04-29 13:33 | 55.60238 | 37.27735 | 678 ft | 0 kts | 90° |
| 2026-04-29 13:33 | 55.60238 | 37.27767 | 679 ft | 4 kts | 90° |
| 2026-04-29 13:33 | 55.60229 | 37.27816 | 679 ft | 4 kts | 129° |
| 2026-04-29 13:34 | 55.60203 | 37.27842 | 679 ft | 4 kts | 159° |
| 2026-04-29 13:34 | 55.60175 | 37.27862 | 679 ft | 4 kts | 156° |
| 2026-04-29 13:34 | 55.60147 | 37.27888 | 679 ft | 6 kts | 147° |
| 2026-04-29 13:34 | 55.60114 | 37.27942 | 679 ft | 7 kts | 132° |
| 2026-04-29 13:35 | 55.60088 | 37.28013 | 679 ft | 7 kts | 113° |
| 2026-04-29 13:35 | 55.60074 | 37.28093 | 679 ft | 7 kts | 102° |
| 2026-04-29 13:35 | 55.60075 | 37.28175 | 679 ft | 7 kts | 85° |
| 2026-04-29 13:35 | 55.60079 | 37.28256 | 679 ft | 7 kts | 85° |
| 2026-04-29 13:36 | 55.60084 | 37.28335 | 679 ft | 6 kts | 83° |
| 2026-04-29 13:36 | 55.60093 | 37.28412 | 678 ft | 6 kts | 68° |
| 2026-04-29 13:36 | 55.60117 | 37.28475 | 678 ft | 6 kts | 49° |
| 2026-04-29 13:36 | 55.60145 | 37.28531 | 678 ft | 6 kts | 47° |
| 2026-04-29 13:37 | 55.60174 | 37.28586 | 678 ft | 6 kts | 47° |
| 2026-04-29 13:37 | 55.60201 | 37.28640 | 679 ft | 6 kts | 50° |
| 2026-04-29 13:37 | 55.60205 | 37.28707 | 678 ft | 6 kts | 112° |
| 2026-04-29 13:37 | 55.60179 | 37.28763 | 679 ft | 6 kts | 133° |
| 2026-04-29 13:38 | 55.60151 | 37.28816 | 678 ft | 6 kts | 134° |
| 2026-04-29 13:38 | 55.60120 | 37.28859 | 678 ft | 6 kts | 148° |
| 2026-04-29 13:38 | 55.60082 | 37.28881 | 678 ft | 6 kts | 165° |
| 2026-04-29 13:38 | 55.60044 | 37.28898 | 680 ft | 6 kts | 166° |
| 2026-04-29 13:39 | 55.60006 | 37.28915 | 683 ft | 6 kts | 166° |
| 2026-04-29 13:39 | 55.59969 | 37.28929 | 680 ft | 5 kts | 166° |
| 2026-04-29 13:39 | 55.59932 | 37.28946 | 680 ft | 5 kts | 166° |
| 2026-04-29 13:39 | 55.59896 | 37.28962 | 684 ft | 5 kts | 166° |
| 2026-04-29 13:40 | 55.59857 | 37.28979 | 686 ft | 7 kts | 166° |
| 2026-04-29 13:40 | 55.59826 | 37.28997 | 686 ft | 2 kts | 160° |
| 2026-04-29 13:40 | 55.59810 | 37.29005 | 686 ft | 3 kts | 173° |
| 2026-04-29 13:40 | 55.59793 | 37.28983 | 691 ft | 4 kts | 243° |
| 2026-04-29 13:41 | 55.59783 | 37.28939 | 689 ft | 4 kts | 248° |
| 2026-04-29 13:41 | 55.59780 | 37.28925 | 686 ft | 0 kts | 249° |
| 2026-04-29 13:41 | 55.59766 | 37.28863 | 685 ft | 20 kts | 248° |
| 2026-04-29 13:41 | 55.59618 | 37.28206 | 679 ft | 94 kts | 248° |
| 2026-04-29 13:42 | 55.59295 | 37.26768 | 670 ft | 155 kts | 248° |
| 2026-04-29 13:42 | 55.58875 | 37.24875 | 1121 ft | 169 kts | 249° |
| 2026-04-29 13:42 | 55.58414 | 37.22983 | 1943 ft | 172 kts | 232° |
| 2026-04-29 13:42 | 55.57507 | 37.21579 | 2555 ft | 184 kts | 220° |
| 2026-04-29 13:43 | 55.56668 | 37.19619 | 2841 ft | 211 kts | 238° |
| 2026-04-29 13:43 | 55.55841 | 37.17371 | 3287 ft | 224 kts | 236° |
| 2026-04-29 13:43 | 55.54934 | 37.14998 | 3807 ft | 234 kts | 228° |
| 2026-04-29 13:43 | 55.53533 | 37.13575 | 4630 ft | 236 kts | 194° |
| 2026-04-29 13:44 | 55.51910 | 37.12992 | 5441 ft | 239 kts | 192° |
| 2026-04-29 13:44 | 55.50290 | 37.12372 | 6248 ft | 241 kts | 193° |
| 2026-04-29 13:44 | 55.48605 | 37.12240 | 6971 ft | 246 kts | 166° |
| 2026-04-29 13:44 | 55.46996 | 37.13601 | 7296 ft | 271 kts | 144° |
| 2026-04-29 13:45 | 55.45485 | 37.15705 | 7914 ft | 280 kts | 142° |
| 2026-04-29 13:45 | 55.43954 | 37.17827 | 8520 ft | 284 kts | 142° |
| 2026-04-29 13:45 | 55.42399 | 37.19952 | 8916 ft | 283 kts | 143° |
| 2026-04-29 13:45 | 55.40811 | 37.22088 | 8852 ft | 291 kts | 143° |
| 2026-04-29 13:46 | 55.39424 | 37.23936 | 8924 ft | 289 kts | 143° |
| 2026-04-29 13:46 | 55.37842 | 37.26056 | 8870 ft | 286 kts | 143° |
| 2026-04-29 13:46 | 55.36326 | 37.28226 | 8889 ft | 284 kts | 136° |
| 2026-04-29 13:46 | 55.34949 | 37.30739 | 8910 ft | 283 kts | 133° |
| 2026-04-29 13:47 | 55.33612 | 37.33287 | 8893 ft | 284 kts | 133° |
| 2026-04-29 13:47 | 55.32277 | 37.35822 | 8901 ft | 284 kts | 130° |
| 2026-04-29 13:47 | 55.31331 | 37.38874 | 8906 ft | 284 kts | 106° |
| 2026-04-29 13:47 | 55.30847 | 37.42209 | 8902 ft | 285 kts | 104° |
| 2026-04-29 13:48 | 55.30376 | 37.45610 | 8899 ft | 286 kts | 104° |
| 2026-04-29 13:48 | 55.29904 | 37.48982 | 8891 ft | 287 kts | 104° |
| 2026-04-29 13:48 | 55.29417 | 37.52392 | 8899 ft | 287 kts | 104° |
| 2026-04-29 13:48 | 55.28929 | 37.55770 | 8899 ft | 288 kts | 104° |
| 2026-04-29 13:49 | 55.28432 | 37.59187 | 8893 ft | 288 kts | 104° |
| 2026-04-29 13:49 | 55.27865 | 37.62514 | 8886 ft | 288 kts | 116° |
| 2026-04-29 13:49 | 55.26619 | 37.65251 | 8909 ft | 286 kts | 144° |
| 2026-04-29 13:49 | 55.24837 | 37.66750 | 9252 ft | 289 kts | 167° |
| 2026-04-29 13:50 | 55.22844 | 37.67360 | 10049 ft | 290 kts | 172° |
| 2026-04-29 13:50 | 55.20784 | 37.67826 | 10541 ft | 306 kts | 173° |
| 2026-04-29 13:50 | 55.18646 | 37.68285 | 11083 ft | 316 kts | 173° |
| 2026-04-29 13:50 | 55.16439 | 37.68770 | 11811 ft | 320 kts | 173° |
| 2026-04-29 13:51 | 55.14206 | 37.69275 | 12576 ft | 323 kts | 173° |
| 2026-04-29 13:51 | 55.11973 | 37.69792 | 13287 ft | 327 kts | 173° |
| 2026-04-29 13:51 | 55.09731 | 37.70318 | 13999 ft | 330 kts | 173° |
| 2026-04-29 13:51 | 55.07419 | 37.70864 | 14675 ft | 333 kts | 173° |
| 2026-04-29 13:52 | 55.05134 | 37.71405 | 14963 ft | 335 kts | 172° |
| 2026-04-29 13:52 | 55.02812 | 37.71955 | 14996 ft | 336 kts | 172° |
| 2026-04-29 13:52 | 55.00508 | 37.72499 | 15003 ft | 337 kts | 172° |
| 2026-04-29 13:52 | 54.98176 | 37.73216 | 15081 ft | 342 kts | 167° |
| 2026-04-29 13:53 | 54.95850 | 37.74218 | 15691 ft | 344 kts | 166° |
| 2026-04-29 13:53 | 54.93541 | 37.75239 | 16496 ft | 343 kts | 166° |
| 2026-04-29 13:53 | 54.91207 | 37.76241 | 17165 ft | 346 kts | 166° |
| 2026-04-29 13:53 | 54.88878 | 37.77200 | 17754 ft | 350 kts | 169° |
| 2026-04-29 13:54 | 54.86463 | 37.77906 | 18355 ft | 353 kts | 172° |
| 2026-04-29 13:54 | 54.83995 | 37.78452 | 18962 ft | 356 kts | 173° |
| 2026-04-29 13:54 | 54.81547 | 37.78959 | 19545 ft | 359 kts | 173° |
| 2026-04-29 13:54 | 54.79036 | 37.79493 | 20100 ft | 363 kts | 173° |
| 2026-04-29 13:55 | 54.76513 | 37.80051 | 20672 ft | 366 kts | 173° |
| 2026-04-29 13:55 | 54.73991 | 37.80624 | 20993 ft | 370 kts | 173° |
| 2026-04-29 13:55 | 54.71432 | 37.81214 | 20988 ft | 369 kts | 173° |
| 2026-04-29 13:55 | 54.68882 | 37.81805 | 20997 ft | 369 kts | 173° |
| 2026-04-29 13:56 | 54.66334 | 37.82395 | 21003 ft | 369 kts | 173° |
| 2026-04-29 13:56 | 54.63795 | 37.82856 | 21021 ft | 374 kts | 176° |
| 2026-04-29 13:56 | 54.61169 | 37.83045 | 21130 ft | 388 kts | 179° |
| 2026-04-29 13:56 | 54.58409 | 37.83152 | 21236 ft | 403 kts | 179° |
| 2026-04-29 13:57 | 54.55540 | 37.83268 | 21403 ft | 414 kts | 179° |
| 2026-04-29 13:57 | 54.52665 | 37.83420 | 21772 ft | 420 kts | 178° |
| 2026-04-29 13:57 | 54.49723 | 37.83602 | 22277 ft | 421 kts | 178° |
| 2026-04-29 13:57 | 54.46825 | 37.83873 | 22737 ft | 423 kts | 172° |
| 2026-04-29 13:58 | 54.43982 | 37.85338 | 23134 ft | 427 kts | 154° |
| 2026-04-29 13:58 | 54.41373 | 37.87727 | 23581 ft | 429 kts | 151° |
| 2026-04-29 13:58 | 54.38763 | 37.90228 | 23983 ft | 432 kts | 151° |
| 2026-04-29 13:58 | 54.36129 | 37.92769 | 24365 ft | 435 kts | 151° |
| 2026-04-29 13:59 | 54.33488 | 37.95301 | 24747 ft | 437 kts | 151° |
| 2026-04-29 13:59 | 54.30800 | 37.97851 | 25132 ft | 440 kts | 151° |
| 2026-04-29 13:59 | 54.28128 | 38.00363 | 25494 ft | 442 kts | 151° |
| 2026-04-29 13:59 | 54.25398 | 38.02913 | 25850 ft | 445 kts | 152° |
| 2026-04-29 14:00 | 54.22701 | 38.05420 | 26184 ft | 447 kts | 152° |
| 2026-04-29 14:00 | 54.19944 | 38.07978 | 26509 ft | 449 kts | 152° |
| 2026-04-29 14:00 | 54.17205 | 38.10513 | 26828 ft | 452 kts | 152° |
| 2026-04-29 14:00 | 54.14424 | 38.13083 | 27147 ft | 454 kts | 152° |
| 2026-04-29 14:01 | 54.11637 | 38.15656 | 27450 ft | 456 kts | 152° |
| 2026-04-29 14:01 | 54.08841 | 38.18233 | 27752 ft | 458 kts | 152° |
| 2026-04-29 14:01 | 54.06061 | 38.20793 | 28030 ft | 460 kts | 152° |
| 2026-04-29 14:01 | 54.03236 | 38.23390 | 28309 ft | 462 kts | 152° |
| 2026-04-29 14:02 | 54.00395 | 38.25997 | 28579 ft | 464 kts | 152° |
| 2026-04-29 14:02 | 53.97543 | 38.28612 | 28838 ft | 466 kts | 152° |
| 2026-04-29 14:02 | 53.94681 | 38.31230 | 29097 ft | 468 kts | 152° |
| 2026-04-29 14:02 | 53.91836 | 38.33830 | 29351 ft | 469 kts | 152° |
| 2026-04-29 14:03 | 53.88953 | 38.36460 | 29670 ft | 469 kts | 152° |
| 2026-04-29 14:03 | 53.86104 | 38.39055 | 30053 ft | 467 kts | 152° |
| 2026-04-29 14:03 | 53.83242 | 38.41658 | 30430 ft | 465 kts | 152° |
| 2026-04-29 14:03 | 53.80384 | 38.44255 | 30746 ft | 465 kts | 152° |
| 2026-04-29 14:04 | 53.77527 | 38.46845 | 31037 ft | 465 kts | 152° |
| 2026-04-29 14:04 | 53.74686 | 38.49500 | 31348 ft | 465 kts | 148° |
| 2026-04-29 14:04 | 53.72066 | 38.52689 | 31667 ft | 464 kts | 141° |
| 2026-04-29 14:04 | 53.69581 | 38.56170 | 31984 ft | 463 kts | 140° |
| 2026-04-29 14:05 | 53.67136 | 38.59657 | 32249 ft | 463 kts | 140° |
| 2026-04-29 14:05 | 53.64693 | 38.63131 | 32520 ft | 463 kts | 140° |
| 2026-04-29 14:05 | 53.62210 | 38.66625 | 32811 ft | 462 kts | 140° |
| 2026-04-29 14:05 | 53.59754 | 38.70046 | 33094 ft | 461 kts | 141° |
| 2026-04-29 14:06 | 53.57266 | 38.73488 | 33364 ft | 461 kts | 141° |
| 2026-04-29 14:06 | 53.54783 | 38.76910 | 33625 ft | 460 kts | 141° |
| 2026-04-29 14:06 | 53.52327 | 38.80288 | 33893 ft | 460 kts | 141° |
| 2026-04-29 14:06 | 53.49843 | 38.83704 | 34142 ft | 459 kts | 141° |
| 2026-04-29 14:07 | 53.47393 | 38.87068 | 34382 ft | 459 kts | 141° |
| 2026-04-29 14:07 | 53.44868 | 38.90435 | 34621 ft | 458 kts | 145° |
| 2026-04-29 14:07 | 53.42174 | 38.93206 | 34848 ft | 457 kts | 154° |
| 2026-04-29 14:07 | 53.39273 | 38.95329 | 35080 ft | 456 kts | 158° |
| 2026-04-29 14:08 | 53.36347 | 38.97328 | 35303 ft | 456 kts | 158° |
| 2026-04-29 14:08 | 53.33383 | 38.99325 | 35515 ft | 456 kts | 158° |
| 2026-04-29 14:08 | 53.30459 | 39.01303 | 35722 ft | 456 kts | 158° |
| 2026-04-29 14:08 | 53.27512 | 39.03314 | 35941 ft | 455 kts | 158° |
| 2026-04-29 14:09 | 53.24602 | 39.05316 | 36158 ft | 454 kts | 158° |
| 2026-04-29 14:09 | 53.21660 | 39.07351 | 36349 ft | 454 kts | 158° |
| 2026-04-29 14:09 | 53.18757 | 39.09362 | 36501 ft | 455 kts | 158° |
| 2026-04-29 14:09 | 53.15819 | 39.11398 | 36674 ft | 455 kts | 158° |
| 2026-04-29 14:10 | 53.12928 | 39.13400 | 36858 ft | 454 kts | 158° |
| 2026-04-29 14:10 | 53.10001 | 39.15423 | 36997 ft | 455 kts | 158° |
| 2026-04-29 14:10 | 53.04151 | 39.19456 | 37004 ft | 457 kts | 158° |
| 2026-04-29 14:11 | 52.98294 | 39.23480 | 36996 ft | 454 kts | 158° |
| 2026-04-29 14:11 | 52.92461 | 39.27476 | 36999 ft | 451 kts | 158° |
| 2026-04-29 14:12 | 52.86686 | 39.31420 | 37001 ft | 450 kts | 158° |
| 2026-04-29 14:12 | 52.80877 | 39.35376 | 37003 ft | 449 kts | 158° |
| 2026-04-29 14:13 | 52.75117 | 39.39288 | 37002 ft | 450 kts | 158° |
| 2026-04-29 14:13 | 52.69320 | 39.43213 | 37004 ft | 451 kts | 158° |
| 2026-04-29 14:14 | 52.64486 | 39.46478 | 37003 ft | 452 kts | 158° |
| 2026-04-29 14:14 | 52.58643 | 39.50414 | 37003 ft | 454 kts | 158° |
| 2026-04-29 14:15 | 52.51834 | 39.54988 | 37004 ft | 455 kts | 158° |
| 2026-04-29 14:15 | 52.46953 | 39.58257 | 37001 ft | 456 kts | 158° |
| 2026-04-29 14:16 | 52.41138 | 39.62493 | 37007 ft | 457 kts | 154° |
| 2026-04-29 14:16 | 52.35462 | 39.67221 | 37001 ft | 457 kts | 153° |
| 2026-04-29 14:17 | 52.29796 | 39.71959 | 37000 ft | 457 kts | 153° |
| 2026-04-29 14:17 | 52.24145 | 39.76608 | 37002 ft | 457 kts | 153° |
| 2026-04-29 14:18 | 52.18451 | 39.81252 | 37000 ft | 456 kts | 154° |
| 2026-04-29 14:18 | 52.12768 | 39.85872 | 37001 ft | 456 kts | 154° |
| 2026-04-29 14:19 | 52.07096 | 39.90475 | 37000 ft | 455 kts | 154° |
| 2026-04-29 14:19 | 52.01451 | 39.95043 | 37001 ft | 454 kts | 154° |
| 2026-04-29 14:20 | 51.95817 | 39.99606 | 37001 ft | 454 kts | 153° |
| 2026-04-29 14:20 | 51.90172 | 40.04184 | 37001 ft | 453 kts | 154° |
| 2026-04-29 14:21 | 51.84528 | 40.08744 | 37000 ft | 453 kts | 154° |
| 2026-04-29 14:21 | 51.78878 | 40.13290 | 37001 ft | 453 kts | 154° |
| 2026-04-29 14:22 | 51.73224 | 40.17828 | 37002 ft | 453 kts | 154° |
| 2026-04-29 14:22 | 51.67768 | 40.22935 | 37010 ft | 453 kts | 147° |
| 2026-04-29 14:23 | 51.62541 | 40.28511 | 37002 ft | 454 kts | 147° |
| 2026-04-29 14:23 | 51.57226 | 40.34028 | 37001 ft | 454 kts | 148° |
| 2026-04-29 14:24 | 51.51888 | 40.39492 | 37002 ft | 454 kts | 147° |
| 2026-04-29 14:24 | 51.46580 | 40.44928 | 37003 ft | 455 kts | 148° |
| 2026-04-29 14:25 | 51.41224 | 40.50394 | 37001 ft | 455 kts | 148° |
| 2026-04-29 14:25 | 51.35904 | 40.55808 | 37000 ft | 455 kts | 148° |
| 2026-04-29 14:26 | 51.30228 | 40.60252 | 37004 ft | 454 kts | 163° |
| 2026-04-29 14:26 | 51.24041 | 40.62124 | 37005 ft | 454 kts | 172° |
| 2026-04-29 14:27 | 51.17788 | 40.63505 | 37002 ft | 454 kts | 172° |
| 2026-04-29 14:28 | 51.08380 | 40.65683 | 37001 ft | 454 kts | 172° |
| 2026-04-29 14:28 | 51.02129 | 40.67177 | 37001 ft | 454 kts | 172° |
| 2026-04-29 14:29 | 50.95879 | 40.68673 | 37001 ft | 454 kts | 172° |
| 2026-04-29 14:29 | 50.89641 | 40.70159 | 37002 ft | 454 kts | 172° |
| 2026-04-29 14:30 | 50.83382 | 40.71644 | 37001 ft | 454 kts | 172° |
| 2026-04-29 14:30 | 50.77166 | 40.73115 | 37001 ft | 454 kts | 172° |
| 2026-04-29 14:31 | 50.70914 | 40.74591 | 37002 ft | 454 kts | 172° |
| 2026-04-29 14:31 | 50.64656 | 40.76065 | 37001 ft | 454 kts | 172° |
| 2026-04-29 14:32 | 50.58627 | 40.78910 | 37004 ft | 454 kts | 154° |
| 2026-04-29 14:32 | 50.53207 | 40.84040 | 37002 ft | 454 kts | 147° |
| 2026-04-29 14:33 | 50.47896 | 40.89381 | 37001 ft | 454 kts | 148° |
| 2026-04-29 14:33 | 50.42557 | 40.94666 | 37000 ft | 454 kts | 148° |
| 2026-04-29 14:34 | 50.37190 | 40.99909 | 37002 ft | 454 kts | 148° |
| 2026-04-29 14:34 | 50.31828 | 41.05119 | 37000 ft | 455 kts | 148° |
| 2026-04-29 14:35 | 50.26444 | 41.10338 | 37002 ft | 455 kts | 148° |
| 2026-04-29 14:35 | 50.21056 | 41.15549 | 37001 ft | 455 kts | 148° |
| 2026-04-29 14:36 | 50.15668 | 41.20746 | 37001 ft | 455 kts | 148° |
| 2026-04-29 14:36 | 50.10288 | 41.25923 | 37001 ft | 455 kts | 148° |
| 2026-04-29 14:37 | 50.04937 | 41.31060 | 37001 ft | 455 kts | 148° |
| 2026-04-29 14:37 | 49.99515 | 41.36202 | 36998 ft | 455 kts | 152° |
| 2026-04-29 14:38 | 49.93606 | 41.39526 | 36997 ft | 453 kts | 170° |
| 2026-04-29 14:38 | 49.87387 | 41.41118 | 36997 ft | 453 kts | 171° |
| 2026-04-29 14:39 | 49.81158 | 41.42651 | 37001 ft | 453 kts | 171° |
| 2026-04-29 14:39 | 49.74928 | 41.44238 | 37000 ft | 454 kts | 171° |
| 2026-04-29 14:40 | 49.68702 | 41.45857 | 37002 ft | 454 kts | 171° |
| 2026-04-29 14:40 | 49.62477 | 41.47483 | 37001 ft | 454 kts | 171° |
| 2026-04-29 14:41 | 49.56262 | 41.49101 | 36999 ft | 454 kts | 171° |
| 2026-04-29 14:41 | 49.50034 | 41.50717 | 37002 ft | 454 kts | 171° |
| 2026-04-29 14:42 | 49.43784 | 41.52334 | 37001 ft | 454 kts | 171° |
| 2026-04-29 14:42 | 49.37551 | 41.53941 | 37002 ft | 454 kts | 171° |
| 2026-04-29 14:43 | 49.31322 | 41.55544 | 37002 ft | 454 kts | 171° |
| 2026-04-29 14:43 | 49.25104 | 41.57140 | 36999 ft | 454 kts | 171° |
| 2026-04-29 14:44 | 49.18882 | 41.58733 | 37003 ft | 454 kts | 171° |
| 2026-04-29 14:44 | 49.12643 | 41.60326 | 37000 ft | 454 kts | 171° |
| 2026-04-29 14:45 | 49.06416 | 41.61912 | 37002 ft | 454 kts | 171° |
| 2026-04-29 14:45 | 49.00201 | 41.63491 | 37001 ft | 454 kts | 171° |
| 2026-04-29 14:46 | 48.93965 | 41.65071 | 37001 ft | 454 kts | 171° |
| 2026-04-29 14:46 | 48.87745 | 41.66644 | 37002 ft | 454 kts | 171° |
| 2026-04-29 14:47 | 48.81482 | 41.68223 | 37002 ft | 454 kts | 171° |
| 2026-04-29 14:47 | 48.75261 | 41.69788 | 37000 ft | 454 kts | 171° |
| 2026-04-29 14:48 | 48.69047 | 41.71347 | 37001 ft | 454 kts | 171° |
| 2026-04-29 14:48 | 48.62820 | 41.72905 | 37002 ft | 454 kts | 171° |
| 2026-04-29 14:49 | 48.56580 | 41.74463 | 37000 ft | 454 kts | 171° |
| 2026-04-29 14:49 | 48.50349 | 41.76015 | 37001 ft | 453 kts | 171° |
| 2026-04-29 14:50 | 48.44154 | 41.77554 | 37002 ft | 453 kts | 171° |
| 2026-04-29 14:50 | 48.37927 | 41.79097 | 37002 ft | 453 kts | 171° |
| 2026-04-29 14:51 | 48.31710 | 41.80790 | 36999 ft | 453 kts | 167° |
| 2026-04-29 14:51 | 48.25601 | 41.82991 | 37002 ft | 453 kts | 166° |
| 2026-04-29 14:52 | 48.19475 | 41.85271 | 37001 ft | 453 kts | 166° |
| 2026-04-29 14:52 | 48.13331 | 41.87500 | 37002 ft | 453 kts | 167° |
| 2026-04-29 14:53 | 48.07189 | 41.89693 | 37001 ft | 454 kts | 167° |
| 2026-04-29 14:53 | 48.01067 | 41.91869 | 37002 ft | 454 kts | 167° |
| 2026-04-29 14:54 | 47.94942 | 41.94043 | 37001 ft | 454 kts | 167° |
| 2026-04-29 14:54 | 47.88769 | 41.96230 | 37001 ft | 454 kts | 167° |
| 2026-04-29 14:55 | 47.82652 | 41.98392 | 37002 ft | 454 kts | 167° |
| 2026-04-29 14:55 | 47.76530 | 42.00548 | 37001 ft | 454 kts | 167° |
| 2026-04-29 14:56 | 47.70343 | 42.02721 | 37002 ft | 454 kts | 167° |
| 2026-04-29 14:56 | 47.64211 | 42.04870 | 37001 ft | 454 kts | 167° |
| 2026-04-29 14:57 | 47.58079 | 42.07014 | 37001 ft | 453 kts | 167° |
| 2026-04-29 14:57 | 47.51942 | 42.09156 | 37001 ft | 453 kts | 167° |
| 2026-04-29 14:58 | 47.45823 | 42.11286 | 37000 ft | 453 kts | 167° |
| 2026-04-29 14:58 | 47.39686 | 42.13417 | 37001 ft | 453 kts | 167° |
| 2026-04-29 14:59 | 47.33541 | 42.15546 | 37003 ft | 453 kts | 167° |
| 2026-04-29 14:59 | 47.27410 | 42.17665 | 37000 ft | 453 kts | 167° |
| 2026-04-29 15:00 | 47.21283 | 42.19777 | 37001 ft | 453 kts | 167° |
| 2026-04-29 15:00 | 47.15155 | 42.21886 | 37001 ft | 453 kts | 167° |
| 2026-04-29 15:01 | 47.09000 | 42.23998 | 37002 ft | 453 kts | 167° |
| 2026-04-29 15:01 | 47.02886 | 42.26092 | 37002 ft | 453 kts | 167° |
| 2026-04-29 15:02 | 46.96680 | 42.27848 | 37002 ft | 453 kts | 171° |
| 2026-04-29 15:02 | 46.90470 | 42.29267 | 37000 ft | 453 kts | 171° |
| 2026-04-29 15:03 | 46.84226 | 42.30726 | 37001 ft | 453 kts | 171° |
| 2026-04-29 15:03 | 46.78011 | 42.32226 | 37002 ft | 453 kts | 171° |
| 2026-04-29 15:04 | 46.71789 | 42.33729 | 37001 ft | 453 kts | 171° |
| 2026-04-29 15:04 | 46.65612 | 42.35441 | 37002 ft | 453 kts | 168° |
| 2026-04-29 15:05 | 46.59450 | 42.37489 | 37001 ft | 454 kts | 167° |
| 2026-04-29 15:05 | 46.54321 | 42.39200 | 37001 ft | 454 kts | 167° |
| 2026-04-29 15:06 | 46.48185 | 42.41200 | 37002 ft | 453 kts | 167° |
| 2026-04-29 15:06 | 46.42008 | 42.43185 | 37000 ft | 453 kts | 168° |
| 2026-04-29 15:07 | 46.35843 | 42.45159 | 37001 ft | 453 kts | 168° |
| 2026-04-29 15:07 | 46.29701 | 42.47122 | 37001 ft | 453 kts | 168° |
| 2026-04-29 15:08 | 46.23566 | 42.49079 | 37001 ft | 453 kts | 168° |
| 2026-04-29 15:08 | 46.17359 | 42.51055 | 36389 ft | 459 kts | 168° |
| 2026-04-29 15:08 | 46.14231 | 42.52050 | 35806 ft | 458 kts | 168° |
| 2026-04-29 15:09 | 46.11148 | 42.53028 | 35170 ft | 458 kts | 168° |
| 2026-04-29 15:09 | 46.08005 | 42.54020 | 34499 ft | 458 kts | 168° |
| 2026-04-29 15:09 | 46.04913 | 42.54959 | 33814 ft | 459 kts | 168° |
| 2026-04-29 15:09 | 46.01772 | 42.55889 | 33229 ft | 457 kts | 168° |
| 2026-04-29 15:10 | 45.98655 | 42.56803 | 32742 ft | 453 kts | 168° |
| 2026-04-29 15:10 | 45.95608 | 42.57698 | 32254 ft | 449 kts | 168° |
| 2026-04-29 15:10 | 45.92550 | 42.58597 | 31771 ft | 445 kts | 168° |
| 2026-04-29 15:10 | 45.89510 | 42.59494 | 31287 ft | 442 kts | 168° |
| 2026-04-29 15:11 | 45.86539 | 42.60372 | 30823 ft | 438 kts | 168° |
| 2026-04-29 15:11 | 45.83540 | 42.61258 | 30350 ft | 434 kts | 168° |
| 2026-04-29 15:11 | 45.80614 | 42.62122 | 29885 ft | 431 kts | 168° |
| 2026-04-29 15:11 | 45.77678 | 42.62988 | 29418 ft | 427 kts | 168° |
| 2026-04-29 15:12 | 45.74770 | 42.63845 | 28938 ft | 424 kts | 168° |
| 2026-04-29 15:12 | 45.71927 | 42.64682 | 28465 ft | 420 kts | 168° |
| 2026-04-29 15:12 | 45.69060 | 42.65525 | 27987 ft | 417 kts | 168° |
| 2026-04-29 15:12 | 45.66219 | 42.66360 | 27519 ft | 414 kts | 168° |
| 2026-04-29 15:13 | 45.63420 | 42.67181 | 27053 ft | 410 kts | 168° |
| 2026-04-29 15:13 | 45.60614 | 42.68004 | 26583 ft | 407 kts | 168° |
| 2026-04-29 15:13 | 45.57877 | 42.68805 | 26125 ft | 404 kts | 168° |
| 2026-04-29 15:13 | 45.55113 | 42.69614 | 25659 ft | 401 kts | 168° |
| 2026-04-29 15:14 | 45.52413 | 42.70404 | 25203 ft | 399 kts | 168° |
| 2026-04-29 15:14 | 45.49686 | 42.71200 | 24742 ft | 396 kts | 168° |
| 2026-04-29 15:14 | 45.46992 | 42.71986 | 24284 ft | 393 kts | 168° |
| 2026-04-29 15:14 | 45.44342 | 42.72782 | 23822 ft | 391 kts | 167° |
| 2026-04-29 15:15 | 45.41697 | 42.73675 | 23356 ft | 388 kts | 166° |
| 2026-04-29 15:15 | 45.39100 | 42.74595 | 22898 ft | 386 kts | 166° |
| 2026-04-29 15:15 | 45.36506 | 42.75521 | 22460 ft | 383 kts | 166° |
| 2026-04-29 15:15 | 45.33927 | 42.76436 | 22015 ft | 381 kts | 166° |
| 2026-04-29 15:16 | 45.31364 | 42.77337 | 21570 ft | 378 kts | 166° |
| 2026-04-29 15:16 | 45.28821 | 42.78224 | 21125 ft | 376 kts | 166° |
| 2026-04-29 15:16 | 45.26288 | 42.79104 | 20682 ft | 373 kts | 166° |
| 2026-04-29 15:16 | 45.23775 | 42.79974 | 20241 ft | 371 kts | 166° |
| 2026-04-29 15:17 | 45.21276 | 42.80837 | 19799 ft | 369 kts | 166° |
| 2026-04-29 15:17 | 45.18790 | 42.81695 | 19359 ft | 366 kts | 166° |
| 2026-04-29 15:17 | 45.16320 | 42.82547 | 18927 ft | 364 kts | 166° |
| 2026-04-29 15:17 | 45.13864 | 42.83394 | 18488 ft | 362 kts | 166° |
| 2026-04-29 15:18 | 45.11424 | 42.84234 | 18055 ft | 360 kts | 166° |
| 2026-04-29 15:18 | 45.08996 | 42.85070 | 17623 ft | 358 kts | 166° |
| 2026-04-29 15:18 | 45.06584 | 42.85899 | 17196 ft | 356 kts | 167° |
| 2026-04-29 15:18 | 45.04184 | 42.86723 | 16770 ft | 354 kts | 167° |
| 2026-04-29 15:19 | 45.01800 | 42.87541 | 16346 ft | 352 kts | 167° |
| 2026-04-29 15:19 | 44.99428 | 42.88357 | 15923 ft | 350 kts | 166° |
| 2026-04-29 15:19 | 44.97071 | 42.89167 | 15506 ft | 348 kts | 166° |
| 2026-04-29 15:19 | 44.94720 | 42.89975 | 15087 ft | 346 kts | 166° |
| 2026-04-29 15:20 | 44.92390 | 42.90776 | 14673 ft | 344 kts | 167° |
| 2026-04-29 15:20 | 44.90070 | 42.91571 | 14257 ft | 342 kts | 167° |
| 2026-04-29 15:20 | 44.87792 | 42.92353 | 13852 ft | 340 kts | 167° |
| 2026-04-29 15:20 | 44.85503 | 42.93137 | 13442 ft | 338 kts | 167° |
| 2026-04-29 15:21 | 44.83221 | 42.93918 | 13031 ft | 336 kts | 167° |
| 2026-04-29 15:21 | 44.80954 | 42.94694 | 12638 ft | 334 kts | 167° |
| 2026-04-29 15:21 | 44.78699 | 42.95465 | 12234 ft | 332 kts | 167° |
| 2026-04-29 15:21 | 44.76467 | 42.96228 | 11842 ft | 330 kts | 167° |
| 2026-04-29 15:22 | 44.74239 | 42.96987 | 11444 ft | 328 kts | 167° |
| 2026-04-29 15:22 | 44.72029 | 42.97742 | 11060 ft | 325 kts | 167° |
| 2026-04-29 15:22 | 44.69836 | 42.98492 | 10667 ft | 323 kts | 167° |
| 2026-04-29 15:22 | 44.67699 | 42.99223 | 10488 ft | 315 kts | 167° |
| 2026-04-29 15:23 | 44.65598 | 42.99941 | 10335 ft | 306 kts | 167° |
| 2026-04-29 15:23 | 44.63557 | 43.00637 | 10198 ft | 297 kts | 167° |
| 2026-04-29 15:23 | 44.61578 | 43.01312 | 10072 ft | 288 kts | 167° |
| 2026-04-29 15:23 | 44.59624 | 43.01531 | 9838 ft | 282 kts | 188° |
| 2026-04-29 15:24 | 44.57747 | 43.00708 | 9437 ft | 284 kts | 202° |
| 2026-04-29 15:24 | 44.55905 | 42.99675 | 9044 ft | 285 kts | 202° |
| 2026-04-29 15:24 | 44.54076 | 42.98657 | 8659 ft | 285 kts | 202° |
| 2026-04-29 15:24 | 44.52247 | 42.97651 | 8266 ft | 279 kts | 201° |
| 2026-04-29 15:25 | 44.50455 | 42.96670 | 7892 ft | 274 kts | 201° |
| 2026-04-29 15:25 | 44.48700 | 42.95712 | 7515 ft | 268 kts | 201° |
| 2026-04-29 15:25 | 44.46976 | 42.94774 | 7176 ft | 264 kts | 201° |
| 2026-04-29 15:25 | 44.45264 | 42.93843 | 6835 ft | 264 kts | 201° |
| 2026-04-29 15:26 | 44.43557 | 42.92915 | 6490 ft | 264 kts | 201° |
| 2026-04-29 15:26 | 44.41850 | 42.91904 | 6145 ft | 269 kts | 209° |
| 2026-04-29 15:26 | 44.40251 | 42.90543 | 5793 ft | 270 kts | 213° |
| 2026-04-29 15:26 | 44.38666 | 42.89098 | 5425 ft | 272 kts | 213° |
| 2026-04-29 15:27 | 44.37068 | 42.87663 | 5053 ft | 273 kts | 213° |
| 2026-04-29 15:27 | 44.35470 | 42.86260 | 4701 ft | 274 kts | 210° |
| 2026-04-29 15:27 | 44.33642 | 42.85574 | 4308 ft | 277 kts | 176° |
| 2026-04-29 15:27 | 44.31853 | 42.86440 | 3973 ft | 276 kts | 143° |
| 2026-04-29 15:28 | 44.30727 | 42.88543 | 3782 ft | 270 kts | 109° |
| 2026-04-29 15:28 | 44.30414 | 42.90219 | 3612 ft | 265 kts | 104° |
| 2026-04-29 15:28 | 44.29451 | 42.93277 | 3194 ft | 254 kts | 120° |
| 2026-04-29 15:28 | 44.28558 | 42.95324 | 2850 ft | 237 kts | 123° |
| 2026-04-29 15:29 | 44.27705 | 42.97183 | 2530 ft | 218 kts | 123° |
| 2026-04-29 15:29 | 44.26205 | 43.00493 | 2011 ft | 186 kts | 122° |
| 2026-04-29 15:30 | 44.24944 | 43.03283 | 1535 ft | 158 kts | 122° |
| 2026-04-29 15:30 | 44.24363 | 43.04579 | 1333 ft | 156 kts | 122° |
| 2026-04-29 15:30 | 44.23784 | 43.05858 | 1164 ft | 156 kts | 122° |
| 2026-04-29 15:30 | 44.23225 | 43.07110 | 1047 ft | 145 kts | 122° |
| 2026-04-29 15:31 | 44.22739 | 43.08174 | 1047 ft | 113 kts | 122° |
| 2026-04-29 15:31 | 44.22383 | 43.08955 | 1048 ft | 78 kts | 122° |
| 2026-04-29 15:31 | 44.22162 | 43.09443 | 1050 ft | 29 kts | 122° |
| 2026-04-29 15:31 | 44.22068 | 43.09648 | 1052 ft | 23 kts | 122° |
| 2026-04-29 15:32 | 44.21984 | 43.09831 | 1052 ft | 22 kts | 122° |
| 2026-04-29 15:32 | 44.21918 | 43.09977 | 1052 ft | 13 kts | 122° |
| 2026-04-29 15:32 | 44.21872 | 43.10079 | 1052 ft | 12 kts | 122° |
| 2026-04-29 15:32 | 44.21828 | 43.10177 | 1053 ft | 12 kts | 122° |
| 2026-04-29 15:33 | 44.21784 | 43.10274 | 1053 ft | 12 kts | 124° |
| 2026-04-29 15:33 | 44.21751 | 43.10323 | 1052 ft | 2 kts | 158° |
| 2026-04-29 15:33 | 44.21729 | 43.10324 | 1051 ft | 4 kts | 191° |
| 2026-04-29 15:33 | 44.21697 | 43.10302 | 1050 ft | 7 kts | 209° |
| 2026-04-29 15:34 | 44.21639 | 43.10254 | 1049 ft | 13 kts | 211° |
| 2026-04-29 15:34 | 44.21583 | 43.10186 | 1047 ft | 9 kts | 242° |
| 2026-04-29 15:34 | 44.21567 | 43.10104 | 1047 ft | 9 kts | 258° |
| 2026-04-29 15:34 | 44.21554 | 43.10022 | 1048 ft | 8 kts | 257° |
| 2026-04-29 15:35 | 44.21547 | 43.09983 | 1048 ft | 0 kts | 256° |
| 2026-04-29 15:37 | 44.21546 | 43.09977 | 1048 ft | 2 kts | 256° |
| 2026-04-29 15:37 | 44.21538 | 43.09926 | 1049 ft | 8 kts | 257° |
| 2026-04-29 15:37 | 44.21526 | 43.09853 | 1049 ft | 8 kts | 257° |
| 2026-04-29 15:38 | 44.21515 | 43.09782 | 1049 ft | 7 kts | 257° |
| 2026-04-29 15:38 | 44.21514 | 43.09712 | 1049 ft | 7 kts | 286° |
| 2026-04-29 15:38 | 44.21537 | 43.09652 | 1049 ft | 7 kts | 302° |
| 2026-04-29 15:38 | 44.21562 | 43.09595 | 1049 ft | 7 kts | 302° |
| 2026-04-29 15:39 | 44.21590 | 43.09534 | 1049 ft | 9 kts | 302° |
| 2026-04-29 15:39 | 44.21637 | 43.09428 | 1049 ft | 16 kts | 302° |
| 2026-04-29 15:39 | 44.21684 | 43.09338 | 1049 ft | 10 kts | 311° |
| 2026-04-29 15:39 | 44.21729 | 43.09267 | 1049 ft | 10 kts | 309° |
| 2026-04-29 15:40 | 44.21761 | 43.09196 | 1049 ft | 5 kts | 302° |
| 2026-04-29 15:40 | 44.21777 | 43.09157 | 1049 ft | 3 kts | 289° |
| 2026-04-29 15:40 | 44.21776 | 43.09122 | 1049 ft | 4 kts | 259° |
| 2026-04-29 15:40 | 44.21760 | 43.09095 | 1049 ft | 4 kts | 216° |
| 2026-04-29 15:41 | 44.21742 | 43.09079 | 1049 ft | 0 kts | 213° |